Pagrindinis puslapis
METAR-TAF:

METAR-TAF

Oro uostai :

Pskovas, Rusija

platuma: 57-47-06N, ilguma: 028-23-54E, Aukštis: 47 m

Dabartinis oras

Ataskaita buvo paskelbta 39 minutes, ne 18:00 UTC
Vėjas 14 kt iš Pietų, svyruoja nuo Pietryčių ir Pietų/Pietvakarių
Temperatūra 4°C
Drėgmė 70%
Slėgis 1003 hPa
Matomumas 10 km arba daugiau

METAR: ULOO 161800Z AUTO 17007MPS 140V200 9999 // 04/M01 Q1003 RMK QFE748

Laikas: 21:39 (18:39 UTC)

Prognozė

Ataskaita buvo paskelbta 1 valandą ir 40 minutes, ne 16:59 UTC
Prognozė galioja nuo 16 metu 18 UTC su 17 metu 03 UTC
Vėjas 12 kt iš Pietų su gūsio iki 21 kt
Matomumas: 6000 m
Su prošvaistėmis ne aukštis 1100 ft
Su prošvaistėmis ne aukštis 2000 ft
Laikinai
nuo 16 metu 18 UTC su 17 metu 03 UTC
Vėjas 17 kt iš Pietų/Pietvakarių su gūsio iki 33 kt
Matomumas: 3100 m
Su prošvaistėmis ne aukštis 600 ft
Su prošvaistėmis ne aukštis 1700 ft, Liūtiniai kamuoliniai debesys.
lietus

TAF: ULOO 161659Z 1618/1703 18006G11MPS 6000 BKN011 BKN020 TEMPO 1618/1703 20009G17MPS 3100 -SHRA BKN006 BKN017CB

Orai ataskaitas ir orų prognozės (METAR, TAF).

turimą stotys yra geltonos ir raudonos taškus žemėlapyje.

Perkelti pele per norėdami pamatyti stoties vardą.

Tada spustelėkite, norėdami matyti oro stebėjimo ir prognozės.

Norėdami pakeisti žemėlapį: spustelėkite ant žalios mygtukų su juodo kryžiaus žemyn,; žalią mygtuką su brūkšneliu, jei norite nutolinti; arba žalių rodyklių gretimoms žemėlapius.


METAR-TAF: